createdAt,value
2019-02-08T00:01:15.592Z,98367.77
2019-02-08T00:03:43.650Z,98372.92
2019-02-08T00:06:10.173Z,98361.33
2019-02-08T00:08:36.652Z,98369.60
2019-02-08T00:11:04.543Z,98363.55
2019-02-08T00:13:31.444Z,98357.53
2019-02-08T00:15:58.055Z,98361.85
2019-02-08T00:18:24.620Z,98361.03
2019-02-08T00:20:52.422Z,98362.77
2019-02-08T00:23:27.082Z,98367.12
2019-02-08T00:25:47.828Z,98368.93
2019-02-08T00:28:14.345Z,98369.76
2019-02-08T00:30:40.841Z,98378.84
2019-02-08T00:33:07.653Z,98378.81
2019-02-08T00:35:34.139Z,98378.84
2019-02-08T00:38:00.979Z,98393.09
2019-02-08T00:40:27.674Z,98390.88
2019-02-08T00:42:55.485Z,98398.67
2019-02-08T00:45:22.906Z,98405.59
2019-02-08T00:47:49.661Z,98399.48
2019-02-08T00:50:18.993Z,98403.76
2019-02-08T00:52:45.463Z,98399.83
2019-02-08T00:55:12.320Z,98412.80
2019-02-08T00:57:38.777Z,98416.27
2019-02-08T01:00:08.550Z,98414.95
2019-02-08T01:02:35.415Z,98417.12
2019-02-08T01:05:02.442Z,98416.25
2019-02-08T01:07:28.912Z,98421.44
2019-02-08T01:09:55.957Z,98422.20
2019-02-08T01:12:22.546Z,98432.50
2019-02-08T01:14:49.166Z,98430.21
2019-02-08T01:17:17.646Z,98424.66
2019-02-08T01:19:44.145Z,98425.54
2019-02-08T01:22:11.472Z,98429.83
2019-02-08T01:24:38.243Z,98439.80
2019-02-08T01:27:05.018Z,98436.78
2019-02-08T01:29:31.746Z,98442.00
2019-02-08T01:31:58.273Z,98433.80
2019-02-08T01:34:24.902Z,98446.33
2019-02-08T01:36:51.429Z,98434.22
2019-02-08T01:39:17.887Z,98430.78
2019-02-08T01:41:44.382Z,98422.13
2019-02-08T01:44:10.882Z,98414.83
2019-02-08T01:46:37.500Z,98410.58
2019-02-08T01:49:04.899Z,98408.03
2019-02-08T01:51:31.399Z,98408.85
2019-02-08T01:53:58.021Z,98404.53
2019-02-08T01:56:24.555Z,98403.23
2019-02-08T01:58:51.301Z,98401.13
2019-02-08T02:01:17.887Z,98402.46
2019-02-08T02:03:44.491Z,98410.30
2019-02-08T02:06:11.192Z,98413.77
2019-02-08T02:08:38.000Z,98421.55
2019-02-08T02:11:04.590Z,98424.15
2019-02-08T02:13:31.316Z,98433.71
2019-02-08T02:15:57.771Z,98439.76
2019-02-08T02:18:24.266Z,98449.27
2019-02-08T02:20:50.820Z,98450.95
2019-02-08T02:23:17.474Z,98439.23
2019-02-08T02:25:44.169Z,98443.12
2019-02-08T02:28:10.768Z,98439.61
2019-02-08T02:30:37.864Z,98435.71
2019-02-08T02:33:06.725Z,98437.92
2019-02-08T02:35:33.265Z,98433.98
2019-02-08T02:38:00.094Z,98427.51
2019-02-08T02:40:26.588Z,98426.73
2019-02-08T02:42:55.374Z,98418.52
2019-02-08T02:45:24.217Z,98418.13
2019-02-08T02:47:50.814Z,98424.19
2019-02-08T02:50:17.683Z,98436.35
2019-02-08T02:52:44.309Z,98431.59
2019-02-08T02:55:11.593Z,98439.81
2019-02-08T02:57:38.204Z,98441.50
2019-02-08T03:00:10.376Z,98448.45
2019-02-08T03:02:36.873Z,98440.23
2019-02-08T03:05:04.533Z,98441.97
2019-02-08T03:07:31.301Z,98440.63
2019-02-08T03:09:57.935Z,98437.55
2019-02-08T03:12:24.405Z,98437.17
2019-02-08T03:14:50.927Z,98440.68
2019-02-08T03:17:17.418Z,98439.00
2019-02-08T03:19:43.856Z,98443.37
2019-02-08T03:22:13.263Z,98440.77
2019-02-08T03:24:40.172Z,98442.92
2019-02-08T03:27:07.028Z,98439.86
2019-02-08T03:29:33.536Z,98432.98
2019-02-08T03:32:00.701Z,98437.27
2019-02-08T03:34:27.272Z,98440.30
2019-02-08T03:36:53.808Z,98438.98
2019-02-08T03:39:20.593Z,98442.50
2019-02-08T03:41:47.083Z,98442.53
2019-02-08T03:44:13.661Z,98452.09
2019-02-08T03:46:40.233Z,98453.00
2019-02-08T03:49:06.820Z,98458.66
2019-02-08T03:51:33.334Z,98451.30
2019-02-08T03:53:59.788Z,98445.24
2019-02-08T03:56:26.290Z,98446.94
2019-02-08T03:58:52.784Z,98446.94
2019-02-08T04:01:19.565Z,98446.91
2019-02-08T04:03:46.126Z,98449.07
2019-02-08T04:06:12.637Z,98443.48
2019-02-08T04:08:41.154Z,98439.11
2019-02-08T04:11:07.901Z,98446.04
2019-02-08T04:13:34.502Z,98449.50
2019-02-08T04:16:01.241Z,98453.83
2019-02-08T04:18:28.022Z,98460.36
2019-02-08T04:20:54.528Z,98466.02
2019-02-08T04:23:21.132Z,98471.22
2019-02-08T04:25:47.950Z,98457.36
2019-02-08T04:28:14.468Z,98464.33
2019-02-08T04:30:40.932Z,98468.19
2019-02-08T04:33:07.573Z,98469.09
2019-02-08T04:35:34.045Z,98470.39
2019-02-08T04:38:00.712Z,98462.22
2019-02-08T04:40:27.416Z,98470.02
2019-02-08T04:42:54.466Z,98473.05
2019-02-08T04:45:21.410Z,98470.45
2019-02-08T04:47:48.313Z,98475.64
2019-02-08T04:50:17.423Z,98477.35
2019-02-08T04:52:44.011Z,98470.39
2019-02-08T04:55:10.963Z,98463.00
2019-02-08T04:57:39.517Z,98465.16
2019-02-08T05:00:10.561Z,98456.90
2019-02-08T05:02:37.057Z,98448.23
2019-02-08T05:05:04.664Z,98457.33
2019-02-08T05:07:31.153Z,98449.50
2019-02-08T05:09:57.976Z,98450.84
2019-02-08T05:12:24.479Z,98441.75
2019-02-08T05:14:51.164Z,98446.08
2019-02-08T05:17:17.653Z,98433.52
2019-02-08T05:19:44.158Z,98442.20
2019-02-08T05:22:10.635Z,98431.39
2019-02-08T05:24:37.179Z,98423.16
2019-02-08T05:27:09.237Z,98423.59
2019-02-08T05:29:35.738Z,98415.77
2019-02-08T05:32:02.355Z,98425.73
2019-02-08T05:34:28.855Z,98437.02
2019-02-08T05:36:55.342Z,98443.97
2019-02-08T05:39:22.853Z,98450.47
2019-02-08T05:41:49.353Z,98440.07
2019-02-08T05:44:15.879Z,98452.20
2019-02-08T05:46:42.359Z,98440.91
2019-02-08T05:49:08.826Z,98446.11
2019-02-08T05:51:35.310Z,98444.38
2019-02-08T05:54:01.795Z,98447.80
2019-02-08T05:56:28.467Z,98442.14
2019-02-08T05:58:55.004Z,98433.05
2019-02-08T06:01:21.474Z,98433.09
2019-02-08T06:03:48.282Z,98436.08
2019-02-08T06:06:14.742Z,98431.36
2019-02-08T06:08:41.367Z,98433.09
2019-02-08T06:11:11.927Z,98433.09
2019-02-08T06:13:38.565Z,98431.36
2019-02-08T06:16:05.391Z,98424.83
2019-02-08T06:18:31.982Z,98430.89
2019-02-08T06:20:58.793Z,98431.72
2019-02-08T06:23:25.311Z,98432.55
2019-02-08T06:25:51.795Z,98438.64
2019-02-08T06:28:18.341Z,98443.41
2019-02-08T06:30:47.342Z,98439.51
2019-02-08T06:33:14.057Z,98434.70
2019-02-08T06:35:40.757Z,98435.58
2019-02-08T06:38:07.469Z,98432.50
2019-02-08T06:40:35.525Z,98427.70
2019-02-08T06:43:02.062Z,98425.96
2019-02-08T06:45:29.034Z,98418.56
2019-02-08T06:47:55.971Z,98422.89
2019-02-08T06:50:23.115Z,98420.25
2019-02-08T06:52:49.604Z,98427.22
2019-02-08T06:55:16.376Z,98428.91
2019-02-08T06:58:02.762Z,98428.42
2019-02-08T07:00:49.025Z,98418.48
2019-02-08T07:03:41.058Z,98415.92
2019-02-08T07:06:28.803Z,98410.77
2019-02-08T07:09:07.131Z,98424.20
2019-02-08T07:11:39.987Z,98434.14
2019-02-08T07:14:16.352Z,98431.55
2019-02-08T07:17:08.741Z,98434.61
2019-02-08T07:20:01.941Z,98444.14
2019-02-08T07:22:48.080Z,98455.00
2019-02-08T07:25:32.985Z,98453.31
2019-02-08T07:28:15.772Z,98448.59
2019-02-08T07:30:56.478Z,98443.44
2019-02-08T07:33:32.540Z,98471.22
2019-02-08T07:36:30.586Z,98460.86
2019-02-08T07:39:05.405Z,98482.55
2019-02-08T07:41:56.114Z,98476.53
2019-02-08T07:44:31.219Z,98477.44
2019-02-08T07:47:15.904Z,98476.15
2019-02-08T07:50:10.112Z,98478.77
2019-02-08T07:52:47.669Z,98470.53
2019-02-08T07:55:36.051Z,98475.73
2019-02-08T07:58:12.612Z,98465.77
2019-02-08T08:00:58.206Z,98471.84
2019-02-08T08:03:47.118Z,98482.23
2019-02-08T08:06:42.329Z,98483.99
2019-02-08T08:09:18.869Z,98487.03
2019-02-08T08:11:51.861Z,98483.13
2019-02-08T08:14:41.516Z,98492.22
2019-02-08T08:17:18.820Z,98493.53
2019-02-08T08:20:09.233Z,98493.12
2019-02-08T08:22:55.619Z,98489.67
2019-02-08T08:25:41.373Z,98487.94
2019-02-08T08:28:39.511Z,98485.34
2019-02-08T08:31:12.799Z,98489.67
2019-02-08T08:33:47.134Z,98493.13
2019-02-08T08:36:54.371Z,98478.83
2019-02-08T08:39:46.197Z,98487.94
2019-02-08T08:42:50.769Z,98494.41
2019-02-08T08:45:55.453Z,98481.77
2019-02-08T08:48:38.611Z,98489.94
2019-02-08T08:51:43.052Z,98492.11
2019-02-08T08:54:42.843Z,98485.09
2019-02-08T08:58:00.874Z,98484.64
2019-02-08T09:01:02.276Z,98486.77
2019-02-08T09:04:02.845Z,98487.55
2019-02-08T09:06:50.701Z,98481.36
2019-02-08T09:09:50.144Z,98469.09
2019-02-08T09:12:35.087Z,98471.63
2019-02-08T09:15:59.244Z,98462.06
2019-02-08T09:19:03.829Z,98462.91
2019-02-08T09:22:11.194Z,98459.75
2019-02-08T09:25:02.017Z,98444.86
2019-02-08T09:28:16.650Z,98439.71
2019-02-08T09:31:15.391Z,98441.05
2019-02-08T09:34:02.021Z,98437.56
2019-02-08T09:37:24.357Z,98447.61
2019-02-08T09:40:16.084Z,98438.44
2019-02-08T09:43:22.283Z,98426.05
2019-02-08T09:46:44.536Z,98426.29
2019-02-08T09:49:32.596Z,98418.67
2019-02-08T09:52:44.341Z,98416.72
2019-02-08T09:55:48.638Z,98420.05
2019-02-08T09:58:45.018Z,98436.24
2019-02-08T10:02:12.436Z,98437.87
2019-02-08T10:05:06.101Z,98443.17
2019-02-08T10:08:16.803Z,98437.77
2019-02-08T10:11:25.199Z,98443.41
2019-02-08T10:14:18.187Z,98446.19
2019-02-08T10:17:22.160Z,98450.45
2019-02-08T10:20:48.874Z,98457.34
2019-02-08T10:23:53.819Z,98462.97
2019-02-08T10:27:05.396Z,98463.42
2019-02-08T10:30:14.725Z,98454.59
2019-02-08T10:33:27.870Z,98452.97
2019-02-08T10:36:28.143Z,98448.55
2019-02-08T10:39:48.114Z,98446.98
2019-02-08T10:43:02.997Z,98450.08
2019-02-08T10:45:50.984Z,98451.88
2019-02-08T10:48:53.605Z,98454.97
2019-02-08T10:51:50.645Z,98441.22
2019-02-08T10:54:54.290Z,98443.97
2019-02-08T10:58:05.276Z,98442.05
2019-02-08T11:01:09.028Z,98448.46
2019-02-08T11:04:16.993Z,98447.17
2019-02-08T11:07:16.532Z,98442.05
2019-02-08T11:10:31.697Z,98444.28
2019-02-08T11:13:50.713Z,98432.60
2019-02-08T11:16:58.502Z,98428.81
2019-02-08T11:19:24.410Z,98409.67
2019-02-08T11:21:51.801Z,98417.47
2019-02-08T11:24:23.551Z,98427.94
2019-02-08T11:26:51.982Z,98421.41
2019-02-08T11:29:18.565Z,98417.42
2019-02-08T11:31:45.161Z,98401.80
2019-02-08T11:34:12.985Z,98402.27
2019-02-08T11:36:40.202Z,98416.11
2019-02-08T11:39:10.975Z,98413.70
2019-02-08T11:41:37.548Z,98410.11
2019-02-08T11:44:04.208Z,98413.85
2019-02-08T11:46:31.258Z,98394.34
2019-02-08T11:48:59.988Z,98399.67
2019-02-08T11:51:26.489Z,98391.62
2019-02-08T11:53:53.006Z,98394.65
2019-02-08T11:56:20.008Z,98400.27
2019-02-08T11:58:46.493Z,98396.16
2019-02-08T12:01:13.016Z,98366.48
2019-02-08T12:03:47.673Z,98384.87
2019-02-08T12:06:14.208Z,98372.63
2019-02-08T12:08:40.686Z,98383.70
2019-02-08T12:11:07.198Z,98380.58
2019-02-08T12:13:34.723Z,98383.28
2019-02-08T12:16:01.399Z,98380.63
2019-02-08T12:18:28.004Z,98381.95
2019-02-08T12:20:54.511Z,98377.77
2019-02-08T12:23:21.653Z,98371.14
2019-02-08T12:25:48.170Z,98371.02
2019-02-08T12:28:14.641Z,98346.56
2019-02-08T12:30:41.912Z,98350.04
2019-02-08T12:33:08.386Z,98348.09
2019-02-08T12:35:34.982Z,98336.84
2019-02-08T12:38:01.512Z,98328.83
2019-02-08T12:40:28.005Z,98314.84
2019-02-08T12:42:54.614Z,98326.72
2019-02-08T12:45:21.293Z,98320.62
2019-02-08T12:47:47.810Z,98304.92
2019-02-08T12:50:14.859Z,98301.70
2019-02-08T12:52:41.339Z,98294.80
2019-02-08T12:55:09.040Z,98274.27
2019-02-08T12:57:35.531Z,98281.28
2019-02-08T13:00:02.334Z,98285.98
2019-02-08T13:02:28.835Z,98280.67
2019-02-08T13:04:55.500Z,98291.29
2019-02-08T13:07:22.062Z,98294.92
2019-02-08T13:09:48.601Z,98290.51
2019-02-08T13:12:15.076Z,98283.52
2019-02-08T13:14:41.549Z,98278.06
2019-02-08T13:17:08.916Z,98282.27
2019-02-08T13:19:35.384Z,98274.69
2019-02-08T13:22:01.975Z,98269.13
2019-02-08T13:24:38.813Z,98271.82
2019-02-08T13:27:05.284Z,98277.92
2019-02-08T13:29:31.925Z,98280.25
2019-02-08T13:31:58.731Z,98283.91
2019-02-08T13:34:25.367Z,98259.20
2019-02-08T13:36:51.832Z,98258.33
2019-02-08T13:39:18.518Z,98261.02
2019-02-08T13:41:45.120Z,98265.41
2019-02-08T13:44:11.584Z,98264.55
2019-02-08T13:46:38.218Z,98258.56
2019-02-08T13:49:04.720Z,98257.25
2019-02-08T13:51:31.247Z,98251.95
2019-02-08T13:53:58.152Z,98245.18
2019-02-08T13:56:24.633Z,98239.41
2019-02-08T13:58:51.232Z,98260.39
2019-02-08T14:01:17.748Z,98250.84
2019-02-08T14:03:44.204Z,98236.88
2019-02-08T14:06:11.005Z,98239.14
2019-02-08T14:08:38.249Z,98236.58
2019-02-08T14:11:04.760Z,98236.89
2019-02-08T14:13:31.415Z,98241.78
2019-02-08T14:15:57.933Z,98253.04
2019-02-08T14:18:24.389Z,98255.66
2019-02-08T14:20:50.828Z,98249.56
2019-02-08T14:23:17.626Z,98237.84
2019-02-08T14:25:44.123Z,98232.70
2019-02-08T14:28:10.621Z,98246.69
2019-02-08T14:30:38.572Z,98241.88
2019-02-08T14:33:05.183Z,98238.43
2019-02-08T14:35:31.794Z,98233.22
2019-02-08T14:37:59.487Z,98230.22
2019-02-08T14:40:26.080Z,98239.39
2019-02-08T14:42:52.927Z,98231.62
2019-02-08T14:45:20.213Z,98226.81
2019-02-08T14:47:47.105Z,98234.25
2019-02-08T14:50:19.693Z,98239.03
2019-02-08T14:52:47.746Z,98232.91
2019-02-08T14:55:14.438Z,98229.36
2019-02-08T14:57:41.194Z,98236.36
2019-02-08T15:00:10.977Z,98226.81
2019-02-08T15:02:37.491Z,98234.67
2019-02-08T15:05:04.900Z,98233.34
2019-02-08T15:07:31.714Z,98229.01
2019-02-08T15:09:58.482Z,98228.54
2019-02-08T15:12:24.969Z,98232.91
2019-02-08T15:14:51.425Z,98231.20
2019-02-08T15:17:18.140Z,98228.13
2019-02-08T15:19:44.725Z,98222.42
2019-02-08T15:22:11.237Z,98228.14
2019-02-08T15:24:37.721Z,98225.53
2019-02-08T15:27:04.454Z,98220.77
2019-02-08T15:29:31.553Z,98215.58
2019-02-08T15:31:58.417Z,98221.66
2019-02-08T15:34:24.976Z,98219.13
2019-02-08T15:36:51.753Z,98206.99
2019-02-08T15:39:18.572Z,98208.34
2019-02-08T15:41:45.131Z,98209.70
2019-02-08T15:44:11.714Z,98199.75
2019-02-08T15:46:38.458Z,98190.62
2019-02-08T15:49:05.302Z,98188.95
2019-02-08T15:51:31.772Z,98187.34
2019-02-08T15:53:58.441Z,98186.56
2019-02-08T15:56:24.904Z,98180.03
2019-02-08T15:58:51.414Z,98174.45
2019-02-08T16:01:18.090Z,98172.66
2019-02-08T16:03:44.686Z,98165.23
2019-02-08T16:06:12.036Z,98164.03
2019-02-08T16:08:39.357Z,98170.19
2019-02-08T16:11:06.045Z,98172.28
2019-02-08T16:13:34.605Z,98154.38
2019-02-08T16:16:01.187Z,98160.06
2019-02-08T16:18:27.650Z,98160.53
2019-02-08T16:20:54.341Z,98161.41
2019-02-08T16:23:21.224Z,98147.92
2019-02-08T16:25:47.727Z,98136.63
2019-02-08T16:28:15.229Z,98134.01
2019-02-08T16:30:41.711Z,98128.81
2019-02-08T16:33:08.923Z,98132.70
2019-02-08T16:35:35.718Z,98122.28
2019-02-08T16:38:02.339Z,98117.95
2019-02-08T16:40:28.939Z,98121.52
2019-02-08T16:42:55.412Z,98121.14
2019-02-08T16:45:25.252Z,98110.20
2019-02-08T16:47:52.974Z,98112.39
2019-02-08T16:50:23.509Z,98111.99
2019-02-08T16:52:50.204Z,98110.25
2019-02-08T16:55:17.698Z,98107.64
2019-02-08T16:57:47.859Z,98103.26
2019-02-08T17:00:17.241Z,98101.91
2019-02-08T17:02:45.229Z,98114.58
2019-02-08T17:05:13.012Z,98110.69
2019-02-08T17:07:39.472Z,98111.61
2019-02-08T17:10:07.326Z,98107.66
2019-02-08T17:12:33.815Z,98100.70
2019-02-08T17:15:04.181Z,98087.22
2019-02-08T17:17:30.870Z,98096.77
2019-02-08T17:19:57.622Z,98082.91
2019-02-08T17:22:24.410Z,98073.68
2019-02-08T17:24:51.196Z,98061.12
2019-02-08T17:27:17.646Z,98069.40
2019-02-08T17:29:46.883Z,98063.17
2019-02-08T17:32:15.389Z,98058.10
2019-02-08T17:34:42.092Z,98051.20
2019-02-08T17:37:08.645Z,98047.31
2019-02-08T17:39:41.565Z,98054.72
2019-02-08T17:42:08.121Z,98046.38
2019-02-08T17:44:34.883Z,98041.61
2019-02-08T17:47:01.665Z,98042.52
2019-02-08T17:49:28.832Z,98039.48
2019-02-08T17:51:55.335Z,98047.31
2019-02-08T17:54:25.812Z,98043.41
2019-02-08T17:56:51.323Z,98033.78
2019-02-08T17:59:18.153Z,98026.83
2019-02-08T18:01:44.643Z,98017.72
2019-02-08T18:04:11.101Z,98011.22
2019-02-08T18:06:37.684Z,98008.49
2019-02-08T18:09:06.764Z,98005.84
2019-02-08T18:11:33.309Z,98000.62
2019-02-08T18:13:59.846Z,97994.08
2019-02-08T18:16:27.461Z,97994.57
2019-02-08T18:18:53.965Z,97992.87
2019-02-08T18:21:20.442Z,97984.11
2019-02-08T18:23:47.050Z,97976.26
2019-02-08T18:26:13.547Z,97977.06
2019-02-08T18:28:40.055Z,97971.80
2019-02-08T18:31:06.521Z,97965.19
2019-02-08T18:33:33.269Z,97952.14
2019-02-08T18:35:59.803Z,97966.02
2019-02-08T18:38:26.256Z,97959.08
2019-02-08T18:40:52.751Z,97951.25
2019-02-08T18:43:19.330Z,97957.22
2019-02-08T18:45:46.342Z,97949.86
2019-02-08T18:48:13.175Z,97959.08
2019-02-08T18:50:42.231Z,97958.28
2019-02-08T18:53:08.942Z,97954.80
2019-02-08T18:55:35.422Z,97952.70
2019-02-08T18:58:02.097Z,97951.06
2019-02-08T19:00:40.395Z,97940.65
2019-02-08T19:03:09.577Z,97944.12
2019-02-08T19:05:36.265Z,97938.48
2019-02-08T19:08:04.013Z,97931.21
2019-02-08T19:10:31.634Z,97930.77
2019-02-08T19:12:59.453Z,97933.35
2019-02-08T19:15:26.064Z,97921.14
2019-02-08T19:17:52.837Z,97916.78
2019-02-08T19:20:20.835Z,97915.64
2019-02-08T19:22:47.936Z,97913.42
2019-02-08T19:25:19.845Z,97919.13
2019-02-08T19:27:46.906Z,97912.67
2019-02-08T19:30:21.581Z,97917.47
2019-02-08T19:32:48.534Z,97909.56
2019-02-08T19:35:15.260Z,97904.02
2019-02-08T19:37:43.138Z,97899.69
2019-02-08T19:40:13.775Z,97879.30
2019-02-08T19:42:47.564Z,97876.69
2019-02-08T19:45:15.042Z,97872.39
2019-02-08T19:47:41.867Z,97875.41
2019-02-08T19:50:24.076Z,97871.08
2019-02-08T19:52:51.052Z,97865.04
2019-02-08T19:55:17.668Z,97862.02
2019-02-08T19:57:44.398Z,97862.45
2019-02-08T20:00:13.746Z,97852.97
2019-02-08T20:02:40.528Z,97859.44
2019-02-08T20:05:11.778Z,97850.78
2019-02-08T20:07:38.536Z,97856.83
2019-02-08T20:10:08.282Z,97848.17
2019-02-08T20:12:35.595Z,97849.48
2019-02-08T20:15:02.624Z,97857.74
2019-02-08T20:17:30.962Z,97851.69
2019-02-08T20:19:57.805Z,97851.28
2019-02-08T20:22:26.177Z,97854.35
2019-02-08T20:24:53.250Z,97843.09
2019-02-08T20:27:20.968Z,97837.00
2019-02-08T20:29:48.234Z,97833.63
2019-02-08T20:32:15.018Z,97821.08
2019-02-08T20:34:41.802Z,97831.39
2019-02-08T20:37:08.530Z,97837.08
2019-02-08T20:39:35.307Z,97831.49
2019-02-08T20:42:01.894Z,97833.69
2019-02-08T20:44:28.756Z,97821.57
2019-02-08T20:46:55.765Z,97815.50
2019-02-08T20:49:22.801Z,97817.66
2019-02-08T20:51:50.427Z,97819.77
2019-02-08T20:54:19.156Z,97807.27
2019-02-08T20:56:49.371Z,97820.31
2019-02-08T20:59:16.247Z,97819.52
2019-02-08T21:01:43.047Z,97816.85
2019-02-08T21:04:10.323Z,97811.30
2019-02-08T21:06:36.882Z,97805.67
2019-02-08T21:09:11.314Z,97804.32
2019-02-08T21:11:37.860Z,97805.99
2019-02-08T21:14:05.655Z,97795.57
2019-02-08T21:16:32.392Z,97796.76
2019-02-08T21:18:59.004Z,97791.97
2019-02-08T21:21:25.559Z,97792.08
2019-02-08T21:23:52.577Z,97785.17
2019-02-08T21:26:19.164Z,97779.95
2019-02-08T21:28:45.700Z,97777.77
2019-02-08T21:31:12.651Z,97762.97
2019-02-08T21:33:45.830Z,97766.94
2019-02-08T21:36:12.381Z,97768.63
2019-02-08T21:38:40.928Z,97767.33
2019-02-08T21:41:07.945Z,97768.65
2019-02-08T21:43:35.854Z,97770.34
2019-02-08T21:46:03.837Z,97766.91
2019-02-08T21:48:30.363Z,97767.34
2019-02-08T21:50:56.968Z,97774.73
2019-02-08T21:53:25.029Z,97768.55
2019-02-08T21:55:57.531Z,97767.54
2019-02-08T21:58:24.046Z,97766.21
2019-02-08T22:00:51.779Z,97757.09
2019-02-08T22:03:18.824Z,97747.02
2019-02-08T22:05:57.610Z,97739.61
2019-02-08T22:08:24.527Z,97740.50
2019-02-08T22:10:51.432Z,97730.08
2019-02-08T22:13:18.529Z,97730.14
2019-02-08T22:15:45.325Z,97719.17
2019-02-08T22:18:12.032Z,97712.81
2019-02-08T22:20:38.677Z,97695.78
2019-02-08T22:23:05.505Z,97695.43
2019-02-08T22:25:32.184Z,97694.63
2019-02-08T22:27:58.953Z,97690.34
2019-02-08T22:30:25.529Z,97680.77
2019-02-08T22:32:53.702Z,97685.92
2019-02-08T22:35:22.033Z,97689.27
2019-02-08T22:37:48.958Z,97689.74
2019-02-08T22:40:17.846Z,97684.97
2019-02-08T22:42:44.666Z,97684.68
2019-02-08T22:45:14.597Z,97674.23
2019-02-08T22:47:41.380Z,97671.53
2019-02-08T22:50:09.097Z,97671.41
2019-02-08T22:52:35.735Z,97652.84
2019-02-08T22:55:03.179Z,97644.06
2019-02-08T22:57:30.279Z,97641.46
2019-02-08T22:59:56.782Z,97634.44
2019-02-08T23:02:23.374Z,97633.44
2019-02-08T23:04:50.347Z,97622.22
2019-02-08T23:07:16.954Z,97618.28
2019-02-08T23:09:43.794Z,97608.30
2019-02-08T23:12:11.148Z,97604.05
2019-02-08T23:14:38.078Z,97606.27
2019-02-08T23:17:05.607Z,97605.83
2019-02-08T23:19:33.079Z,97599.14
2019-02-08T23:21:59.799Z,97603.45
2019-02-08T23:24:26.270Z,97598.87
2019-02-08T23:26:52.793Z,97593.72
2019-02-08T23:29:19.371Z,97582.64
2019-02-08T23:31:45.859Z,97591.73
2019-02-08T23:34:12.560Z,97585.63
2019-02-08T23:36:39.099Z,97595.19
2019-02-08T23:39:10.599Z,97599.48
2019-02-08T23:41:37.061Z,97596.77
2019-02-08T23:44:03.616Z,97610.70
2019-02-08T23:46:30.144Z,97611.21
2019-02-08T23:48:56.933Z,97605.48
2019-02-08T23:51:23.688Z,97618.21
2019-02-08T23:53:50.572Z,97626.92
2019-02-08T23:56:17.488Z,97619.10
2019-02-08T23:58:44.535Z,97624.04
